Time;durP1;ratioP1;P1;durP2;ratioP2;P2;SDS_P1;SDS_P2;PMS_P1;PMS_P2;Temp;Humidity;BMP_temperature;BMP_pressure;BME280_temperature;BME280_humidity;BME280_pressure;Samples;Min_cycle;Max_cycle;Signal;HPM_P1;HPM_P2
2022/12/02 00:02:27;;;;;;;13.30;7.30;;;-1.20;99.90;;;;;;5054365;28;20214;-66
2022/12/02 00:04:58;;;;;;;15.50;7.57;;;-1.20;99.90;;;;;;5054300;28;20210;-66
2022/12/02 00:07:25;;;;;;;18.20;9.23;;;-1.20;99.90;;;;;;5053687;28;20193;-66
2022/12/02 00:09:52;;;;;;;16.40;9.23;;;-1.20;99.90;;;;;;5054354;28;20684;-67
2022/12/02 00:12:21;;;;;;;11.10;7.40;;;-1.20;99.90;;;;;;5054248;28;20697;-65
2022/12/02 00:14:54;;;;;;;13.60;7.70;;;-1.20;99.90;;;;;;5054283;28;20570;-65
2022/12/02 00:17:21;;;;;;;11.60;7.60;;;-1.20;99.90;;;;;;5053810;28;20194;-66
2022/12/02 00:19:48;;;;;;;16.20;7.60;;;-1.20;99.90;;;;;;5054388;28;20201;-66
2022/12/02 05:13:23;;;;;;;13.43;8.37;;;-2.50;99.90;;;;;;5068783;28;20962;-66
2022/12/02 05:15:50;;;;;;;15.77;8.40;;;-2.00;99.90;;;;;;5068859;28;20204;-69
2022/12/02 05:18:17;;;;;;;16.50;8.57;;;-2.00;99.90;;;;;;5069432;28;20205;-69
2022/12/02 05:20:43;;;;;;;14.53;8.60;;;-1.90;99.90;;;;;;5065323;28;20213;-67
2022/12/02 05:23:12;;;;;;;14.90;8.57;;;-1.90;99.90;;;;;;5048701;28;20204;-68
2022/12/02 05:25:39;;;;;;;13.13;8.07;;;-1.80;99.90;;;;;;5048672;28;20212;-68
2022/12/02 05:28:06;;;;;;;15.63;8.93;;;-1.80;99.90;;;;;;5048779;28;20568;-67
2022/12/02 05:30:34;;;;;;;16.60;8.53;;;-1.80;99.90;;;;;;5049374;28;20205;-67
2022/12/02 05:33:01;;;;;;;12.30;7.77;;;-1.80;99.90;;;;;;5048520;28;20688;-66
2022/12/02 05:35:29;;;;;;;17.20;7.90;;;-1.80;99.90;;;;;;5048519;28;20206;-66
2022/12/02 05:37:55;;;;;;;14.57;7.93;;;-1.70;99.90;;;;;;5048633;28;20209;-67
2022/12/02 05:40:22;;;;;;;13.93;8.33;;;-1.80;99.90;;;;;;5048732;28;20579;-69
2022/12/02 05:42:49;;;;;;;16.87;8.13;;;-1.70;99.90;;;;;;5066928;28;20201;-66
2022/12/02 05:45:19;;;;;;;12.40;7.67;;;-1.70;99.90;;;;;;5068137;28;20209;-69
2022/12/02 05:47:49;;;;;;;14.47;7.23;;;-1.70;99.90;;;;;;5068272;28;20551;-66
2022/12/02 05:50:17;;;;;;;14.90;8.47;;;-1.70;99.90;;;;;;5068199;28;20193;-67
2022/12/02 05:52:44;;;;;;;13.77;8.50;;;-1.70;99.90;;;;;;5065505;28;20224;-65
2022/12/02 05:55:17;;;;;;;17.40;9.30;;;-1.70;99.90;;;;;;5067877;28;20215;-67
2022/12/02 05:57:45;;;;;;;18.03;8.90;;;-1.70;99.90;;;;;;5067867;28;20216;-66
2022/12/02 06:00:18;;;;;;;18.97;9.83;;;-1.70;99.90;;;;;;5068092;28;20600;-66
2022/12/02 06:02:49;;;;;;;15.93;9.03;;;-1.70;99.90;;;;;;5049016;28;20221;-67
2022/12/02 06:05:19;;;;;;;17.20;9.20;;;-1.70;99.90;;;;;;5048054;28;20190;-65
2022/12/02 10:03:13;;;;;;;17.50;10.53;;;-0.90;99.90;;;;;;5080752;28;20681;-67
2022/12/02 10:05:40;;;;;;;15.63;9.13;;;-0.90;99.90;;;;;;5578132;22;21424;-68
2022/12/02 10:08:12;;;;;;;14.20;8.10;;;-0.80;99.90;;;;;;5045889;28;20248;-67
2022/12/02 10:10:41;;;;;;;14.67;8.17;;;-0.70;99.90;;;;;;5047245;28;20205;-70
2022/12/02 10:13:12;;;;;;;16.33;8.97;;;-0.70;99.90;;;;;;5049205;28;20229;-68
2022/12/02 10:15:39;;;;;;;12.67;8.20;;;-0.60;99.90;;;;;;5048565;28;20289;-66
2022/12/02 10:18:13;;;;;;;15.37;8.60;;;-0.50;99.90;;;;;;5048792;28;20205;-68
2022/12/02 10:20:40;;;;;;;14.77;8.63;;;-0.40;99.90;;;;;;5048827;28;20185;-67
2022/12/02 10:23:18;;;;;;;14.30;8.10;;;-0.40;99.90;;;;;;5049090;28;20232;-67
2022/12/02 10:25:47;;;;;;;27.23;13.23;;;-0.40;99.90;;;;;;5045150;28;20193;-69
2022/12/02 10:28:26;;;;;;;18.67;9.73;;;-0.30;99.90;;;;;;5045501;28;20205;-65
2022/12/02 10:30:56;;;;;;;13.37;8.13;;;-0.30;99.90;;;;;;5039879;28;20212;-69
2022/12/02 10:33:26;;;;;;;15.10;8.13;;;-0.20;99.90;;;;;;5046905;28;20542;-67
2022/12/02 10:35:54;;;;;;;16.50;8.40;;;-0.20;99.90;;;;;;5044166;28;20205;-67
2022/12/02 10:38:37;;;;;;;13.30;8.77;;;-0.10;99.90;;;;;;5048274;28;20315;-67
2022/12/02 10:41:21;;;;;;;16.03;8.87;;;-0.10;99.90;;;;;;5036228;28;20227;-68
2022/12/02 10:44:05;;;;;;;15.93;9.80;;;-0.10;99.90;;;;;;5035441;28;20881;-67
2022/12/02 10:46:33;;;;;;;19.57;10.47;;;0.00;99.90;;;;;;5034337;28;20214;-67
2022/12/02 10:49:33;;;;;;;20.43;10.30;;;0.10;99.90;;;;;;5028702;28;20204;-67
2022/12/02 10:52:07;;;;;;;18.58;10.77;;;0.10;99.90;;;;;;5033166;28;20444;-67
2022/12/02 10:54:35;;;;;;;21.00;11.07;;;0.10;99.90;;;;;;5043839;28;20555;-67
2022/12/02 10:57:03;;;;;;;18.80;10.97;;;0.20;99.90;;;;;;5039430;28;20209;-66
2022/12/02 10:59:31;;;;;;;16.83;10.67;;;0.20;99.90;;;;;;5044787;28;20202;-68
2022/12/02 11:01:58;;;;;;;18.43;10.03;;;0.30;99.90;;;;;;5034869;28;20693;-68
2022/12/02 11:04:25;;;;;;;18.40;9.73;;;0.30;99.90;;;;;;5028694;28;20194;-66
2022/12/02 11:06:54;;;;;;;20.27;10.10;;;0.30;99.90;;;;;;5028350;28;20240;-67
2022/12/02 11:09:24;;;;;;;17.53;9.93;;;0.30;99.90;;;;;;5028618;28;20198;-66
2022/12/02 11:11:51;;;;;;;19.97;10.20;;;0.30;99.90;;;;;;5032345;28;20242;-67
2022/12/02 11:14:56;;;;;;;21.97;10.90;;;0.20;99.90;;;;;;5034651;28;20202;-68
2022/12/02 11:17:45;;;;;;;16.93;10.23;;;0.20;99.90;;;;;;5016672;28;20668;-68
2022/12/02 11:20:37;;;;;;;20.17;11.23;;;0.20;99.90;;;;;;5034067;28;20201;-68
2022/12/02 11:23:18;;;;;;;22.27;12.47;;;0.20;99.90;;;;;;5029859;28;20221;-67
2022/12/02 11:26:06;;;;;;;20.33;12.00;;;0.20;99.90;;;;;;5030629;28;21029;-67
2022/12/02 11:29:04;;;;;;;22.10;11.90;;;0.30;99.90;;;;;;5030749;28;20930;-69
2022/12/02 11:31:31;;;;;;;21.33;12.50;;;0.30;99.90;;;;;;5034793;28;20186;-68
2022/12/02 11:34:21;;;;;;;17.33;11.07;;;0.30;99.90;;;;;;5034783;28;20229;-68
2022/12/02 11:37:26;;;;;;;19.53;10.83;;;0.30;99.90;;;;;;5034648;28;20202;-67
2022/12/02 11:39:55;;;;;;;19.53;10.93;;;0.30;99.90;;;;;;5034416;28;20552;-67
2022/12/02 11:42:25;;;;;;;22.50;11.27;;;0.30;99.90;;;;;;5034666;28;20228;-68
2022/12/02 11:44:52;;;;;;;20.43;11.40;;;0.30;99.90;;;;;;5034148;28;20213;-68
2022/12/02 11:47:30;;;;;;;18.83;10.73;;;0.30;99.90;;;;;;5034594;28;20202;-67
2022/12/02 11:50:12;;;;;;;19.90;11.87;;;0.30;99.90;;;;;;5034709;28;20270;-69
2022/12/02 11:52:40;;;;;;;21.17;12.10;;;0.30;99.90;;;;;;5034601;28;20626;-67
2022/12/02 11:55:16;;;;;;;20.10;11.80;;;0.30;99.90;;;;;;5034570;28;20210;-70
2022/12/02 11:57:47;;;;;;;23.00;12.37;;;0.30;99.90;;;;;;5035024;28;20705;-69
2022/12/02 12:00:22;;;;;;;27.03;14.27;;;0.40;99.90;;;;;;5034642;28;20190;-71
2022/12/02 12:03:09;;;;;;;19.47;11.47;;;0.40;99.90;;;;;;5034369;28;20216;-70
2022/12/02 12:05:36;;;;;;;23.87;12.27;;;0.50;99.90;;;;;;5034535;28;20200;-68
2022/12/02 12:08:03;;;;;;;23.43;12.10;;;0.50;99.90;;;;;;5034353;28;20191;-70
2022/12/02 12:10:33;;;;;;;23.13;12.13;;;0.40;99.90;;;;;;5033823;28;20216;-69
2022/12/02 12:13:15;;;;;;;22.97;11.23;;;0.40;99.90;;;;;;5034234;28;20652;-71
2022/12/02 12:15:53;;;;;;;22.80;11.93;;;0.40;99.90;;;;;;5034214;28;20317;-69
2022/12/02 12:18:42;;;;;;;19.73;10.93;;;0.40;99.90;;;;;;5027528;28;20213;-70
2022/12/02 12:21:10;;;;;;;29.47;14.90;;;0.40;99.90;;;;;;5028590;28;20281;-69
2022/12/02 12:23:38;;;;;;;19.93;11.50;;;0.30;99.90;;;;;;5030267;28;20233;-70
2022/12/02 12:26:08;;;;;;;21.43;11.67;;;0.30;99.90;;;;;;5030191;28;20233;-67
2022/12/02 12:28:37;;;;;;;21.83;9.87;;;0.30;99.90;;;;;;5025574;28;20195;-67
2022/12/02 12:31:05;;;;;;;18.50;9.70;;;0.30;99.90;;;;;;5013657;28;20203;-67
2022/12/02 12:33:32;;;;;;;21.53;10.30;;;0.30;99.90;;;;;;5028150;28;20629;-68
2022/12/02 12:35:59;;;;;;;18.33;10.77;;;0.30;99.90;;;;;;5024032;28;20209;-66
2022/12/02 12:38:28;;;;;;;20.10;11.27;;;0.30;99.90;;;;;;5022394;28;20210;-67
2022/12/02 12:40:56;;;;;;;24.03;11.83;;;0.30;99.90;;;;;;5033497;28;20206;-67
2022/12/02 12:43:24;;;;;;;21.97;11.53;;;0.30;99.90;;;;;;5033685;28;20253;-67
2022/12/02 12:45:51;;;;;;;26.20;13.60;;;0.30;99.90;;;;;;5033714;28;20289;-67
2022/12/02 12:48:17;;;;;;;23.27;12.03;;;0.30;99.90;;;;;;5033443;28;20229;-67
2022/12/02 12:50:44;;;;;;;24.73;11.63;;;0.40;99.90;;;;;;5033061;28;20594;-68
2022/12/02 12:53:11;;;;;;;23.20;12.03;;;0.40;99.90;;;;;;5033211;28;20212;-69
2022/12/02 12:55:38;;;;;;;21.40;11.07;;;0.40;99.90;;;;;;5030048;28;20676;-68
2022/12/02 12:58:05;;;;;;;23.17;11.47;;;0.40;99.90;;;;;;5029289;28;20213;-67
2022/12/02 13:00:33;;;;;;;23.77;12.03;;;0.30;99.90;;;;;;5014318;28;20213;-69
2022/12/02 13:03:00;;;;;;;23.77;11.87;;;0.20;99.90;;;;;;5018480;28;20218;-67
2022/12/02 13:05:26;;;;;;;25.43;11.10;;;0.20;99.90;;;;;;5028794;28;20210;-67
2022/12/02 13:07:53;;;;;;;26.07;11.33;;;0.20;99.90;;;;;;5033096;28;20320;-68
2022/12/02 13:10:21;;;;;;;22.80;11.73;;;0.20;99.90;;;;;;5031281;28;20202;-68
2022/12/02 13:12:48;;;;;;;20.47;10.37;;;0.20;99.90;;;;;;5031461;28;20206;-67
2022/12/02 13:15:15;;;;;;;25.93;11.20;;;0.10;99.90;;;;;;5030498;28;20202;-68
2022/12/02 13:17:43;;;;;;;25.47;11.73;;;0.10;99.90;;;;;;5028516;28;20198;-68
2022/12/02 13:20:12;;;;;;;29.50;12.37;;;0.10;99.90;;;;;;5031720;28;20531;-67
2022/12/02 13:22:39;;;;;;;28.90;11.60;;;0.10;99.90;;;;;;5032664;28;20221;-68
2022/12/02 13:25:07;;;;;;;28.93;13.00;;;0.10;99.90;;;;;;5032705;28;20202;-67
2022/12/02 13:27:34;;;;;;;25.53;12.40;;;0.10;99.90;;;;;;5034225;28;20275;-67
2022/12/02 13:30:01;;;;;;;31.57;13.83;;;0.10;99.90;;;;;;5049055;28;20220;-67
2022/12/02 13:32:27;;;;;;;26.13;12.37;;;0.10;99.90;;;;;;5049660;28;20330;-70
2022/12/02 13:34:55;;;;;;;24.90;12.13;;;0.10;99.90;;;;;;5031374;28;20670;-71
2022/12/02 13:37:22;;;;;;;26.00;12.67;;;0.10;99.90;;;;;;5032811;28;20212;-71
2022/12/02 13:39:49;;;;;;;23.60;11.83;;;0.10;99.90;;;;;;5032783;28;20206;-70
2022/12/02 13:42:16;;;;;;;30.17;13.70;;;0.10;99.90;;;;;;5032392;28;20236;-69
2022/12/02 13:44:43;;;;;;;27.00;13.10;;;0.00;99.90;;;;;;5035500;28;20224;-70
2022/12/02 13:47:10;;;;;;;29.17;14.47;;;0.00;99.90;;;;;;5033099;28;20265;-70
2022/12/02 13:49:37;;;;;;;29.13;14.10;;;0.00;99.90;;;;;;5020956;28;20232;-70
2022/12/02 13:52:05;;;;;;;27.93;13.47;;;0.00;99.90;;;;;;5031208;28;20304;-70
2022/12/02 13:54:33;;;;;;;35.03;15.53;;;0.00;99.90;;;;;;5023856;28;20454;-70
2022/12/02 13:56:59;;;;;;;32.77;15.27;;;-0.10;99.90;;;;;;5017923;28;20264;-70
2022/12/02 13:59:26;;;;;;;29.35;14.35;;;-0.10;99.90;;;;;;5030765;28;20431;-70
2022/12/02 14:01:53;;;;;;;30.23;13.20;;;-0.10;99.90;;;;;;5027717;28;20199;-70
2022/12/02 14:04:20;;;;;;;25.70;12.30;;;-0.10;99.90;;;;;;5026837;28;20214;-70
2022/12/02 14:06:46;;;;;;;25.30;13.00;;;0.00;99.90;;;;;;5019610;28;20249;-70
2022/12/02 14:09:14;;;;;;;26.53;13.17;;;0.00;99.90;;;;;;5028603;28;20209;-69
2022/12/02 17:45:17;;;;;;;34.60;18.60;;;-1.10;99.90;;;;;;5595687;22;20586;-68
2022/12/02 17:47:43;;;;;;;25.13;13.50;;;-1.10;99.90;;;;;;5022341;28;20871;-65
2022/12/02 17:50:14;;;;;;;26.40;14.87;;;-1.00;99.90;;;;;;5022389;28;20594;-66
2022/12/02 17:52:41;;;;;;;24.00;13.97;;;-0.80;99.90;;;;;;5029071;28;20199;-67
2022/12/02 17:55:08;;;;;;;28.23;14.53;;;-0.80;99.90;;;;;;5026643;28;20198;-67
2022/12/02 17:57:35;;;;;;;25.17;14.30;;;-0.60;99.90;;;;;;5029175;28;20213;-66
2022/12/02 18:00:02;;;;;;;25.63;13.73;;;-0.50;99.90;;;;;;5033288;28;20671;-64
2022/12/02 18:02:30;;;;;;;24.30;13.23;;;-0.50;99.90;;;;;;5024103;28;20225;-66
2022/12/02 18:04:59;;;;;;;24.93;13.37;;;-0.40;99.90;;;;;;5026699;28;20222;-64
2022/12/02 18:07:26;;;;;;;29.03;14.40;;;-0.40;99.90;;;;;;5023325;28;20575;-65
2022/12/02 18:09:52;;;;;;;25.30;14.00;;;-0.30;99.90;;;;;;5030229;28;20649;-65
2022/12/02 18:12:19;;;;;;;26.10;13.53;;;-0.30;99.90;;;;;;5012376;28;20198;-65
2022/12/02 18:14:46;;;;;;;26.07;14.20;;;-0.30;99.90;;;;;;5028635;28;20217;-65
2022/12/02 18:17:13;;;;;;;37.57;19.43;;;-0.20;99.90;;;;;;5027899;28;20217;-64
2022/12/02 18:19:41;;;;;;;33.33;17.97;;;-0.20;99.90;;;;;;5028478;28;20206;-64
2022/12/02 18:22:08;;;;;;;33.53;16.73;;;-0.20;99.90;;;;;;5026202;28;20213;-64
2022/12/02 18:24:35;;;;;;;33.07;16.67;;;-0.10;99.90;;;;;;5024769;28;20556;-65
2022/12/02 18:27:02;;;;;;;26.13;14.90;;;-0.10;99.90;;;;;;5028249;28;20210;-65
2022/12/02 18:29:28;;;;;;;32.67;18.33;;;-0.10;99.90;;;;;;5025959;28;20225;-67
2022/12/02 18:31:55;;;;;;;29.87;16.93;;;-0.10;99.90;;;;;;5029450;28;20234;-66
2022/12/02 18:34:22;;;;;;;29.57;15.43;;;0.00;99.90;;;;;;5038196;28;20194;-67
2022/12/02 18:36:50;;;;;;;28.33;14.97;;;0.00;99.90;;;;;;5036892;28;20245;-65
2022/12/02 18:39:17;;;;;;;29.13;15.80;;;0.00;99.90;;;;;;5036031;28;20260;-66
2022/12/02 18:41:44;;;;;;;28.50;15.67;;;0.00;99.90;;;;;;5032944;28;20214;-65
2022/12/02 18:44:11;;;;;;;25.60;14.70;;;0.00;99.90;;;;;;5035599;28;20226;-66
2022/12/02 18:46:37;;;;;;;31.47;15.80;;;0.00;99.90;;;;;;5035179;28;20225;-66
2022/12/02 18:49:04;;;;;;;31.63;15.60;;;0.00;99.90;;;;;;5034852;28;20193;-65
2022/12/02 18:51:31;;;;;;;31.60;17.53;;;0.10;99.90;;;;;;5041402;28;20201;-66
2022/12/02 18:53:59;;;;;;;29.23;15.20;;;0.10;99.90;;;;;;5028062;28;20206;-65
2022/12/02 18:56:26;;;;;;;30.07;15.37;;;0.10;99.90;;;;;;5019350;28;20206;-65
2022/12/02 18:58:55;;;;;;;31.67;15.30;;;0.10;99.90;;;;;;5018109;28;20194;-67
2022/12/02 19:01:22;;;;;;;32.50;15.23;;;0.10;99.90;;;;;;5017102;28;20287;-70
2022/12/02 19:03:48;;;;;;;29.83;15.63;;;0.10;99.90;;;;;;5014620;28;20226;-72
2022/12/02 19:06:15;;;;;;;27.50;15.27;;;0.10;99.90;;;;;;5014996;28;20203;-71
2022/12/02 19:08:42;;;;;;;30.10;15.13;;;0.10;99.90;;;;;;5019076;28;20561;-71
2022/12/02 19:11:10;;;;;;;26.57;14.77;;;0.10;99.90;;;;;;5024456;28;20658;-69
2022/12/02 19:13:37;;;;;;;31.50;14.97;;;0.20;99.90;;;;;;5024007;28;20607;-68
2022/12/02 19:16:04;;;;;;;27.47;14.50;;;0.10;99.90;;;;;;5023070;28;20682;-70
2022/12/02 19:18:31;;;;;;;27.83;14.13;;;0.10;99.90;;;;;;5023769;28;20586;-69
2022/12/02 19:21:00;;;;;;;27.70;14.97;;;0.10;99.90;;;;;;5022540;28;20256;-71
2022/12/02 19:23:27;;;;;;;27.13;15.10;;;0.10;99.90;;;;;;5019711;28;20234;-69
2022/12/02 19:25:54;;;;;;;26.63;14.33;;;0.10;99.90;;;;;;5022828;28;20660;-68
2022/12/02 19:28:22;;;;;;;26.37;14.03;;;0.10;99.90;;;;;;5014974;28;20690;-69
2022/12/02 19:30:49;;;;;;;27.20;13.87;;;0.10;99.90;;;;;;5026337;28;20195;-69
2022/12/02 19:33:16;;;;;;;24.83;13.53;;;0.10;99.90;;;;;;5027066;28;20211;-67
2022/12/02 19:35:43;;;;;;;23.63;12.57;;;0.10;99.90;;;;;;5014384;28;20205;-72
2022/12/02 19:38:10;;;;;;;26.20;12.47;;;0.10;99.90;;;;;;5016555;28;20202;-69
2022/12/02 19:40:36;;;;;;;27.10;15.90;;;0.10;99.90;;;;;;5020695;28;20242;-68
2022/12/02 19:43:03;;;;;;;22.63;12.07;;;0.10;99.90;;;;;;5013778;28;20206;-70
2022/12/02 19:45:31;;;;;;;30.83;15.77;;;0.10;99.90;;;;;;5013612;28;20253;-70
2022/12/02 19:47:58;;;;;;;25.33;11.63;;;0.20;99.90;;;;;;5014435;28;20566;-70
2022/12/02 19:50:25;;;;;;;20.90;11.23;;;0.10;99.90;;;;;;5012585;28;20211;-72
2022/12/02 19:52:52;;;;;;;20.20;11.00;;;0.10;99.90;;;;;;5013489;28;20221;-70
2022/12/02 19:55:18;;;;;;;23.43;12.07;;;0.10;99.90;;;;;;5013633;28;20721;-69
2022/12/02 19:57:45;;;;;;;21.73;11.13;;;0.10;99.90;;;;;;5000037;28;20203;-68
2022/12/02 20:00:15;;;;;;;20.23;10.90;;;0.10;99.90;;;;;;5010315;28;20210;-69
2022/12/02 20:02:43;;;;;;;21.80;11.17;;;0.10;99.90;;;;;;5010989;28;20207;-69
2022/12/02 20:05:12;;;;;;;20.73;10.87;;;0.10;99.90;;;;;;5012396;28;20705;-68
2022/12/02 20:07:39;;;;;;;18.77;10.90;;;0.10;99.90;;;;;;5011706;28;20577;-68
2022/12/02 20:10:07;;;;;;;21.40;11.30;;;0.10;99.90;;;;;;5023134;28;20301;-70
2022/12/02 20:12:34;;;;;;;18.53;10.80;;;0.10;99.90;;;;;;5017932;28;20225;-70
2022/12/02 20:15:00;;;;;;;20.27;11.10;;;0.10;99.90;;;;;;5023931;28;20561;-71
2022/12/02 20:17:27;;;;;;;19.77;10.67;;;0.10;99.90;;;;;;5022628;28;20207;-70
2022/12/02 20:19:55;;;;;;;19.93;11.37;;;0.10;99.90;;;;;;5014506;28;20209;-67
2022/12/02 20:22:22;;;;;;;21.07;10.63;;;0.10;99.90;;;;;;5013596;28;20569;-69
2022/12/02 20:24:49;;;;;;;18.93;10.70;;;0.10;99.90;;;;;;5010154;28;20631;-69
2022/12/02 20:27:16;;;;;;;19.87;10.80;;;0.10;99.90;;;;;;5013350;28;20597;-68
2022/12/02 20:29:42;;;;;;;19.00;10.57;;;0.10;99.90;;;;;;5019495;28;20303;-70
2022/12/02 20:32:09;;;;;;;17.27;10.53;;;0.10;99.90;;;;;;5021480;28;20295;-69
2022/12/02 20:34:37;;;;;;;20.93;11.60;;;0.10;99.90;;;;;;5018533;28;20195;-68
2022/12/02 20:37:05;;;;;;;19.83;10.90;;;0.10;99.90;;;;;;5018946;28;20213;-69
2022/12/02 20:39:32;;;;;;;18.17;11.10;;;0.10;99.90;;;;;;5015052;28;20203;-67
2022/12/02 20:41:58;;;;;;;17.70;10.63;;;0.10;99.90;;;;;;5003606;28;20228;-69
2022/12/02 20:44:25;;;;;;;19.87;11.33;;;0.10;99.90;;;;;;5003445;28;20218;-69
2022/12/02 20:46:52;;;;;;;17.93;10.70;;;0.10;99.90;;;;;;5004406;28;20240;-71
2022/12/02 20:49:19;;;;;;;20.50;11.03;;;0.10;99.90;;;;;;5003863;28;20203;-70
2022/12/02 20:51:46;;;;;;;16.53;10.13;;;0.10;99.90;;;;;;5004699;28;20203;-70
2022/12/02 20:54:14;;;;;;;17.10;10.37;;;0.10;99.90;;;;;;5005722;28;20214;-69
2022/12/02 20:56:41;;;;;;;20.80;10.87;;;0.10;99.90;;;;;;5007109;28;20582;-70
2022/12/02 20:59:08;;;;;;;20.17;11.47;;;0.10;99.90;;;;;;5006234;28;20194;-68
2022/12/02 21:01:35;;;;;;;21.17;10.70;;;0.10;99.90;;;;;;5005056;28;20207;-69
2022/12/02 21:04:01;;;;;;;18.27;9.97;;;0.10;99.90;;;;;;5003140;28;20678;-71
2022/12/02 21:06:28;;;;;;;20.03;10.83;;;0.10;99.90;;;;;;5010876;28;20207;-68
2022/12/02 21:08:55;;;;;;;18.90;9.80;;;0.10;99.90;;;;;;5013220;28;20615;-68
2022/12/02 21:11:23;;;;;;;20.73;10.53;;;0.10;99.90;;;;;;5012621;28;20203;-69
2022/12/02 21:13:50;;;;;;;16.20;9.70;;;0.10;99.90;;;;;;5011938;28;20203;-70
2022/12/02 21:16:17;;;;;;;17.13;10.33;;;0.00;99.90;;;;;;5012461;28;20249;-68
2022/12/02 21:18:44;;;;;;;18.97;9.73;;;0.10;99.90;;;;;;5012419;28;20225;-68
2022/12/02 21:21:11;;;;;;;22.17;11.00;;;0.10;99.90;;;;;;5012290;28;20210;-69
2022/12/02 21:23:38;;;;;;;19.17;10.97;;;0.10;99.90;;;;;;5012433;28;20206;-68
2022/12/02 21:26:05;;;;;;;19.67;10.23;;;0.10;99.90;;;;;;5013420;28;20237;-68
2022/12/02 21:28:33;;;;;;;23.27;10.97;;;0.10;99.90;;;;;;5010774;28;20658;-68
2022/12/02 21:30:59;;;;;;;18.00;10.30;;;0.10;99.90;;;;;;5012126;28;20298;-68
2022/12/02 21:33:26;;;;;;;19.50;10.73;;;0.10;99.90;;;;;;5012224;28;20207;-70
2022/12/02 21:35:53;;;;;;;19.97;10.53;;;0.10;99.90;;;;;;5012400;28;20203;-68
2022/12/02 21:38:20;;;;;;;17.47;10.73;;;0.10;99.90;;;;;;5010678;28;20210;-69
2022/12/02 21:40:47;;;;;;;18.90;10.90;;;0.10;99.90;;;;;;5012122;28;20214;-68
2022/12/02 21:43:13;;;;;;;21.13;11.40;;;0.10;99.90;;;;;;5011391;28;20215;-68
2022/12/02 21:45:41;;;;;;;21.63;10.77;;;0.20;99.90;;;;;;5011612;28;20601;-71
2022/12/02 21:48:08;;;;;;;18.27;10.33;;;0.20;99.90;;;;;;5012256;28;20206;-69
2022/12/02 21:50:35;;;;;;;17.77;10.23;;;0.20;99.90;;;;;;5010309;28;20198;-68
2022/12/02 21:53:02;;;;;;;29.20;16.10;;;0.20;99.90;;;;;;5012145;28;20206;-68
2022/12/02 21:55:29;;;;;;;20.67;10.70;;;0.20;99.90;;;;;;5011975;28;20694;-68
2022/12/02 21:57:55;;;;;;;19.87;12.43;;;0.20;99.90;;;;;;5012132;28;20206;-69
2022/12/02 22:00:23;;;;;;;25.43;12.87;;;0.20;99.90;;;;;;5011344;28;20206;-69
2022/12/02 22:02:51;;;;;;;31.97;15.60;;;0.20;99.90;;;;;;5010972;28;20651;-70
2022/12/02 22:05:18;;;;;;;20.57;10.10;;;0.20;99.90;;;;;;5011442;28;20230;-68
2022/12/02 22:07:47;;;;;;;17.20;9.80;;;0.20;99.90;;;;;;5012061;28;20207;-68
2022/12/02 22:10:16;;;;;;;18.37;9.90;;;0.20;99.90;;;;;;5012056;28;20210;-69
2022/12/02 22:12:43;;;;;;;16.93;9.33;;;0.20;99.90;;;;;;5004902;28;20209;-68
2022/12/02 22:15:11;;;;;;;17.57;9.67;;;0.20;99.90;;;;;;5006560;28;20231;-69
2022/12/02 22:17:38;;;;;;;19.53;10.17;;;0.20;99.90;;;;;;5011237;28;20209;-68
2022/12/02 22:20:08;;;;;;;16.57;9.27;;;0.20;99.90;;;;;;5012123;28;20207;-69
2022/12/02 22:22:35;;;;;;;19.63;10.30;;;0.20;99.90;;;;;;4997170;28;20203;-68
2022/12/02 22:25:02;;;;;;;18.77;10.40;;;0.20;99.90;;;;;;4994258;28;20223;-67
2022/12/02 22:27:29;;;;;;;17.23;10.40;;;0.20;99.90;;;;;;5009738;28;20210;-68
2022/12/02 22:29:55;;;;;;;17.73;9.53;;;0.20;99.90;;;;;;5012417;28;20203;-68
2022/12/02 22:32:22;;;;;;;15.80;9.80;;;0.20;99.90;;;;;;5015472;28;20207;-66
2022/12/02 22:34:49;;;;;;;18.10;9.67;;;0.20;99.90;;;;;;5015241;28;20574;-68
2022/12/02 22:37:17;;;;;;;18.10;9.77;;;0.20;99.90;;;;;;5015241;28;20202;-68
2022/12/02 22:39:44;;;;;;;18.30;10.47;;;0.20;99.90;;;;;;5013354;28;20217;-68
2022/12/02 22:42:11;;;;;;;19.57;9.87;;;0.20;99.90;;;;;;5015106;28;20206;-68
2022/12/02 22:44:38;;;;;;;16.93;9.63;;;0.20;99.90;;;;;;5015244;28;20590;-68
2022/12/02 22:47:05;;;;;;;17.77;9.73;;;0.20;99.90;;;;;;5015118;28;20561;-68
2022/12/02 22:49:31;;;;;;;18.67;9.60;;;0.20;99.90;;;;;;5015230;28;20209;-68
2022/12/02 22:51:58;;;;;;;15.67;9.47;;;0.20;99.90;;;;;;4995015;28;20203;-68
2022/12/02 22:54:26;;;;;;;18.90;10.17;;;0.20;99.90;;;;;;5006287;28;20214;-68
2022/12/02 22:56:53;;;;;;;19.63;9.70;;;0.10;99.90;;;;;;5015058;28;20563;-68
2022/12/02 22:59:20;;;;;;;17.53;9.87;;;0.10;99.90;;;;;;5014727;28;20699;-68
2022/12/02 23:01:47;;;;;;;17.97;9.77;;;0.10;99.90;;;;;;5014973;28;20211;-68
2022/12/02 23:04:13;;;;;;;18.67;9.87;;;0.10;99.90;;;;;;5014605;28;20681;-68
2022/12/02 23:06:41;;;;;;;15.50;9.30;;;0.10;99.90;;;;;;5012553;28;20203;-68
2022/12/02 23:09:08;;;;;;;17.80;10.43;;;0.10;99.90;;;;;;5013158;28;20424;-64
2022/12/02 23:11:36;;;;;;;17.33;9.00;;;0.10;99.90;;;;;;5013572;28;20207;-64
2022/12/02 23:14:03;;;;;;;21.63;9.97;;;0.10;99.90;;;;;;5014508;28;20785;-64
2022/12/02 23:16:30;;;;;;;17.37;9.93;;;0.10;99.90;;;;;;5033571;28;20201;-63
2022/12/02 23:18:57;;;;;;;16.63;9.70;;;0.10;99.90;;;;;;5034052;28;20212;-64
2022/12/02 23:21:23;;;;;;;19.20;9.20;;;0.10;99.90;;;;;;5013722;28;20198;-63
2022/12/02 23:23:50;;;;;;;15.87;9.17;;;0.10;99.90;;;;;;5012466;28;20213;-63
2022/12/02 23:26:17;;;;;;;18.47;9.97;;;0.10;99.90;;;;;;5013842;28;20234;-64
2022/12/02 23:28:45;;;;;;;17.77;9.60;;;0.10;99.90;;;;;;5014195;28;20208;-64
2022/12/02 23:31:12;;;;;;;16.63;9.20;;;0.10;99.90;;;;;;5013882;28;20211;-65
2022/12/02 23:33:39;;;;;;;17.87;8.80;;;0.10;99.90;;;;;;5013974;28;20215;-65
2022/12/02 23:36:06;;;;;;;15.03;9.03;;;0.10;99.90;;;;;;5012708;28;20207;-66
2022/12/02 23:38:33;;;;;;;17.03;8.50;;;0.10;99.90;;;;;;5014174;28;20296;-63
2022/12/02 23:40:59;;;;;;;16.73;8.10;;;0.10;99.90;;;;;;5013679;28;20238;-64
2022/12/02 23:43:27;;;;;;;16.77;9.00;;;0.10;99.90;;;;;;5014037;28;20213;-63
2022/12/02 23:45:55;;;;;;;16.17;8.50;;;0.10;99.90;;;;;;5013296;28;20281;-65
2022/12/02 23:48:22;;;;;;;15.87;8.07;;;0.10;99.90;;;;;;5012964;28;20225;-65
2022/12/02 23:50:49;;;;;;;15.50;8.37;;;0.10;99.90;;;;;;5013130;28;20217;-64
2022/12/02 23:53:15;;;;;;;18.80;8.30;;;0.10;99.90;;;;;;5007962;28;20210;-64
2022/12/02 23:55:42;;;;;;;17.83;8.90;;;0.10;99.90;;;;;;5012632;28;20229;-64
2022/12/02 23:58:09;;;;;;;18.27;8.50;;;0.10;99.90;;;;;;5013572;28;20211;-64
